Woodward, OK (73802)

6:49 PM CST on November 17, 2017 (GMT -0600)
ENE 2 blocks of Post Office | | Change Station
Active Advisory: Wind Advisory

Elev 1956 ft 36.43 °N, 99.39 °W | Updated 7 seconds ago

Partly Cloudy
Partly Cloudy
79.3 °F
Feels Like 78 °F
N
10.0
Wind Variable Wind from SSW

Today
High -- | Low -- °F
--% Chance of Precip.
Yesterday
High -- | Low -- °F
Precip. -- in
Pressure 29.58 in
Visibility 10.0 miles
Clouds Clear
Heat Index 78 °F
Dew Point 37 °F
Humidity 22%
Rainfall 0.00 in
Snow Depth Not available.
7:17 AM 5:27 PM
Waning Crescent, 0% visible
METAR KWWR 180035Z AUTO 20011KT 10SM CLR 23/M02 A2958 RMK AO2
Pressure 29.58 in
Visibility 10.0 miles
Clouds Clear
Heat Index 78 °F
Dew Point 37 °F
Humidity 22%
Rainfall 0.00 in
Snow Depth Not available.
7:17 AM 5:27 PM
Waning Crescent, 0% visible
METAR KWWR 180035Z AUTO 20011KT 10SM CLR 23/M02 A2958 RMK AO2

Get Your Daily Forecast Email!

Thanks for signing up!

Be on the lookout for a verification email in your inbox.

You'll start receiving severe weather alerts in your inbox..

×

10-Day Weather Forecast

Almanac

Astronomy

Nov. 17, 2017 Rise Set
Actual Time
Civil Twilight
Nautical Twilight
Astronomical Twilight
Moon
Length of Visible Light
Length of Day
Tomorrow will be .
, % of the Moon is Illuminated

Today's Extremes

State Highs State Lows

Community

WunderPhotos

Category 6

Welcome to Category 6. This is the collective home for Weather Underground's featured writeups by Dr. Jeff Masters (right), Bob Henson (left), Chris Burt, and other regular contributors.

Nearby

Air Quality

  Air Quality AQ Index Pollutant
Not available.

Snow Depth

Station Depth Elevation

Earthquake Activity

City Distance Mag. Time & Date
Minimum magnitude displayed is 2.5.

Coastal Water Temperatures

Place Temperature

Stations

Nearby Weather Stations

Station Location Temp. Windchill Dew Point Humidity Wind Precip. Elev Updated Type
                   

Watches & Warnings

Wind Advisory
Issued: 3:12 PM CST Nov. 17, 2017 – National Weather Service

... Wind Advisory remains in effect from midnight tonight to 3 PM
CST Saturday...

* timing... late tonight through Saturday afternoon.

* Winds... northwest 25 to 30 mph sustained with gusts to 40 to 50
mph, with the strongest winds in western and northern Oklahoma.

* Impacts... the winds will make it more difficult to control high-
profile vehicles.


Precautionary/preparedness actions...

A Wind Advisory means that winds of 35 mph are expected. Winds
this strong can make driving difficult, especially for high
profile vehicles. Use extra caution.